ADDS METAR Data INFO
IDs: Format: Raw Decoded Include TAF

Data at: 0859 UTC 20 Oct 2017

KGCM 200855Z AUTO 14008KT 10SM CLR 13/11 A3012 RMK AO2
KGCM 200835Z AUTO 14008KT 10SM CLR 13/11 A3013 RMK AO2
KGCM 200815Z AUTO 14010KT 10SM CLR 14/11 A3013 RMK AO2
KGCM 200755Z AUTO 14008KT 10SM CLR 13/11 A3013 RMK AO2
KGCM 200735Z AUTO 14008KT 10SM CLR 13/11 A3013 RMK AO2
KGCM 200715Z AUTO 13007KT 10SM CLR 13/11 A3013 RMK AO2
KGCM 200655Z AUTO 14007KT 10SM CLR 14/11 A3013 RMK AO2
KGCM 200635Z AUTO 14008KT 10SM CLR 14/11 A3013 RMK AO2
KGCM 200615Z AUTO 14008KT 10SM CLR 14/11 A3013 RMK AO2
KGCM 200555Z AUTO 14007KT 10SM CLR 13/11 A3013 RMK AO2
KGCM 200535Z AUTO 16006KT 10SM CLR 13/11 A3013 RMK AO2
KGCM 200515Z AUTO 14006KT 10SM CLR 13/11 A3013 RMK AO2
KGCM 200455Z AUTO 13006KT 10SM CLR 15/11 A3013 RMK AO2
KGCM 200435Z AUTO 13005KT 10SM CLR 14/11 A3014 RMK AO2
KGCM 200415Z AUTO 14006KT 10SM CLR 14/11 A3013 RMK AO2
KGCM 200355Z AUTO 14006KT 10SM CLR 15/11 A3013 RMK AO2
KGCM 200335Z AUTO 13005KT 10SM CLR 14/11 A3013 RMK AO2
KGCM 200315Z AUTO 13004KT 10SM CLR 15/11 A3012 RMK AO2
KGCM 200255Z AUTO 13006KT 10SM CLR 15/11 A3012 RMK AO2
KGCM 200235Z AUTO 13004KT 10SM CLR 15/11 A3012 RMK AO2
KGCM 200215Z AUTO 14005KT 10SM CLR 16/11 A3011 RMK AO2
KGCM 200155Z AUTO 12003KT 10SM CLR 16/11 A3011 RMK AO2
KGCM 200135Z AUTO 14005KT 10SM CLR 16/11 A3011 RMK AO2
KGCM 200115Z AUTO 15005KT 10SM CLR 16/11 A3012 RMK AO2
KGCM 200055Z AUTO 15004KT 10SM CLR 16/11 A3011 RMK AO2
KGCM 200035Z AUTO 15005KT 10SM CLR 17/12 A3012 RMK AO2
KGCM 200015Z AUTO 15006KT 10SM CLR 17/12 A3011 RMK AO2
KGCM 192355Z AUTO 15006KT 10SM CLR 18/12 A3011 RMK AO2
KGCM 192335Z AUTO 16005KT 10SM CLR 19/12 A3011 RMK AO2
KGCM 192315Z AUTO 17006KT 10SM CLR 21/12 A3011 RMK AO2
KGCM 192255Z AUTO 17007KT 10SM CLR 22/11 A3011 RMK AO2
KGCM 192235Z AUTO 17007KT 10SM CLR 23/11 A3011 RMK AO2
KGCM 192215Z AUTO 17006KT 10SM CLR 23/12 A3011 RMK AO2
KGCM 192155Z AUTO 15008KT 10SM CLR 25/12 A3011 RMK AO2
KGCM 192135Z AUTO 17009G14KT 10SM CLR 25/12 A3012 RMK AO2
KGCM 192115Z AUTO 17009KT 10SM CLR 25/11 A3012 RMK AO2
KGCM 192055Z AUTO 15008G14KT 10SM CLR 25/12 A3012 RMK AO2
KGCM 192035Z AUTO 16006KT 10SM CLR 25/13 A3013 RMK AO2
KGCM 192015Z AUTO 17009KT 10SM CLR 24/12 A3013 RMK AO2
KGCM 191955Z AUTO 18006KT 10SM CLR 24/12 A3013 RMK AO2
KGCM 191935Z AUTO 19010KT 10SM CLR 23/12 A3014 RMK AO2
KGCM 191915Z AUTO 20007KT 10SM CLR 23/13 A3015 RMK AO2
KGCM 191855Z AUTO 20012G15KT 10SM CLR 24/12 A3016 RMK AO2
KGCM 191840Z AUTO 21011KT 10SM CLR 24/12 A3016 RMK AO2
KGCM 191815Z AUTO 20011G14KT 10SM CLR 24/12 A3017 RMK AO2
KGCM 191755Z AUTO 21009G14KT 10SM CLR 23/12 A3018 RMK AO2
KGCM 191735Z AUTO 21010KT 10SM CLR 23/12 A3019 RMK AO2
KGCM 191715Z AUTO 20012G16KT 10SM CLR 22/12 A3019 RMK AO2
KGCM 191655Z AUTO 20010KT 10SM CLR 22/12 A3020 RMK AO2
KGCM 191635Z AUTO 19010G16KT 10SM CLR 21/12 A3020 RMK AO2
KGCM 191615Z AUTO 19013KT 10SM CLR 21/12 A3020 RMK AO2
KGCM 191555Z AUTO 19009KT 10SM CLR 20/12 A3020 RMK AO2
KGCM 191535Z AUTO 19009KT 10SM CLR 20/12 A3020 RMK AO2
KGCM 191515Z AUTO 17010KT 10SM CLR 18/11 A3020 RMK AO2
KGCM 191455Z AUTO 17010KT 10SM CLR 18/11 A3020 RMK AO2
KGCM 191435Z AUTO 17008KT 10SM CLR 17/11 A3020 RMK AO2
KGCM 191415Z AUTO 16008KT 10SM CLR 15/11 A3020 RMK AO2
KGCM 191355Z AUTO 17008KT 10SM CLR 15/10 A3019 RMK AO2
KGCM 191335Z AUTO 17009KT 10SM CLR 13/10 A3018 RMK AO2
KGCM 191315Z AUTO 17008KT 10SM CLR 12/09 A3018 RMK AO2
KGCM 191255Z AUTO 16006KT 10SM CLR 11/08 A3017 RMK AO2
KGCM 191235Z AUTO 16005KT 10SM CLR 11/08 A3017 RMK AO2
KGCM 191215Z AUTO 15005KT 10SM CLR 11/08 A3017 RMK AO2
KGCM 191155Z AUTO 16006KT 10SM CLR 12/08 A3017 RMK AO2
KGCM 191135Z AUTO 15006KT 10SM CLR 11/08 A3017 RMK AO2
KGCM 191115Z AUTO 15004KT 10SM CLR 11/08 A3016 RMK AO2
KGCM 191055Z AUTO 15005KT 10SM CLR 11/08 A3016 RMK AO2
KGCM 191035Z AUTO 15004KT 10SM CLR 11/08 A3015 RMK AO2
KGCM 191015Z AUTO 16005KT 10SM CLR 11/08 A3014 RMK AO2
KGCM 190955Z AUTO 15004KT 10SM CLR 11/08 A3014 RMK AO2
KGCM 190935Z AUTO 16004KT 10SM CLR 12/08 A3013 RMK AO2
KGCM 190915Z AUTO 16004KT 10SM CLR 12/08 A3013 RMK AO2
KGCM 190855Z AUTO 16004KT 10SM CLR 11/08 A3013 RMK AO2
KGCM 190835Z AUTO 16004KT 10SM CLR 11/08 A3013 RMK AO2
KGCM 190815Z AUTO 16003KT 10SM CLR 11/07 A3013 RMK AO2
KGCM 190755Z AUTO 17004KT 10SM CLR 12/07 A3012 RMK AO2
KGCM 190735Z AUTO 00000KT 10SM CLR 11/07 A3012 RMK AO2
KGCM 190715Z AUTO 00000KT 10SM CLR 10/07 A3012 RMK AO2
KGCM 190655Z AUTO 20004KT 10SM CLR 11/07 A3011 RMK AO2
KGCM 190635Z AUTO 18004KT 10SM CLR 13/07 A3011 RMK AO2
KGCM 190615Z AUTO 18005KT 10SM CLR 13/07 A3011 RMK AO2
KGCM 190555Z AUTO 18007KT 10SM CLR 13/07 A3011 RMK AO2
KGCM 190535Z AUTO 18004KT 10SM CLR 13/07 A3011 RMK AO2
KGCM 190515Z AUTO 19005KT 10SM CLR 13/07 A3011 RMK AO2
KGCM 190455Z AUTO 19006KT 10SM CLR 13/07 A3011 RMK AO2
KGCM 190435Z AUTO 18006KT 10SM CLR 13/07 A3011 RMK AO2
KGCM 190415Z AUTO 18006KT 10SM CLR 14/07 A3011 RMK AO2
KGCM 190355Z AUTO 18005KT 10SM CLR 14/08 A3010 RMK AO2
KGCM 190335Z AUTO 18006KT 10SM CLR 15/08 A3011 RMK AO2
KGCM 190315Z AUTO 18007KT 10SM CLR 14/08 A3011 RMK AO2
KGCM 190255Z AUTO 18006KT 10SM CLR 14/08 A3010 RMK AO2
KGCM 190235Z AUTO 16003KT 10SM CLR 13/08 A3010 RMK AO2
KGCM 190215Z AUTO 16005KT 10SM CLR 13/08 A3009 RMK AO2
KGCM 190155Z AUTO 14004KT 10SM CLR 14/08 A3009 RMK AO2
KGCM 190135Z AUTO 15005KT 10SM CLR 15/08 A3009 RMK AO2
KGCM 190115Z AUTO 15006KT 10SM CLR 15/08 A3009 RMK AO2
KGCM 190055Z AUTO 16007KT 10SM CLR 16/08 A3009 RMK AO2
KGCM 190035Z AUTO 14004KT 10SM CLR 16/08 A3009 RMK AO2
KGCM 190015Z AUTO 16004KT 10SM CLR 17/08 A3008 RMK AO2
KGCM 182355Z AUTO 15003KT 10SM CLR 18/09 A3008 RMK AO2
KGCM 182335Z AUTO 16003KT 10SM CLR 20/08 A3007 RMK AO2
KGCM 182315Z AUTO 19005KT 10SM CLR 21/07 A3007 RMK AO2
KGCM 182255Z AUTO 19007KT 10SM CLR 22/07 A3006 RMK AO2
KGCM 182235Z AUTO 19011G16KT 10SM CLR 23/07 A3006 RMK AO2
KGCM 182215Z AUTO 19011G14KT 10SM CLR 23/07 A3007 RMK AO2
KGCM 182155Z AUTO 19011G14KT 10SM CLR 24/07 A3008 RMK AO2
KGCM 182135Z AUTO 19012G19KT 10SM CLR 25/07 A3007 RMK AO2
KGCM 182115Z AUTO 18011G17KT 10SM CLR 24/08 A3007 RMK AO2